Time;durP1;ratioP1;P1;durP2;ratioP2;P2;SDS_P1;SDS_P2;PMS_P1;PMS_P2;Temp;Humidity;BMP_temperature;BMP_pressure;BME280_temperature;BME280_humidity;BME280_pressure;Samples;Min_cycle;Max_cycle;Signal;HPM_P1;HPM_P2
2022/12/19 00:00:34;;;;;;;14.98;8.05;;;21.20;58.70;;;;;;5069260;28;20107;-76
2022/12/19 00:03:00;;;;;;;12.55;8.07;;;21.20;58.50;;;;;;5055887;28;20063;-76
2022/12/19 00:05:26;;;;;;;12.70;7.43;;;21.00;58.60;;;;;;5055252;28;20040;-75
2022/12/19 00:07:52;;;;;;;14.43;8.40;;;21.00;58.80;;;;;;5050170;28;20033;-76
2022/12/19 00:10:18;;;;;;;14.05;7.50;;;20.90;59.10;;;;;;5044101;28;20047;-76
2022/12/19 00:12:44;;;;;;;13.35;7.82;;;20.90;59.30;;;;;;5030275;28;20049;-76
2022/12/19 00:15:10;;;;;;;13.68;8.13;;;20.90;59.10;;;;;;5059258;28;20044;-77
2022/12/19 00:17:36;;;;;;;11.82;7.57;;;20.90;59.00;;;;;;5070285;28;20033;-76
2022/12/19 00:20:02;;;;;;;13.35;7.53;;;21.00;58.30;;;;;;5069532;28;20071;-76
2022/12/19 00:22:28;;;;;;;11.43;6.88;;;21.00;58.60;;;;;;5069090;28;20470;-73
2022/12/19 00:24:54;;;;;;;11.23;6.82;;;21.00;58.70;;;;;;5068880;28;20073;-77
2022/12/19 00:27:20;;;;;;;9.82;6.10;;;21.00;58.20;;;;;;5069875;28;20127;-77
2022/12/19 00:29:46;;;;;;;9.98;6.03;;;21.20;58.20;;;;;;5069584;28;20075;-76
2022/12/19 00:32:12;;;;;;;11.18;7.25;;;21.00;58.10;;;;;;5069402;28;20037;-74
2022/12/19 00:34:38;;;;;;;9.32;6.60;;;21.10;58.00;;;;;;5057633;28;20025;-75
2022/12/19 00:37:04;;;;;;;11.18;5.10;;;21.10;58.20;;;;;;5059446;28;20036;-76
2022/12/19 00:39:30;;;;;;;9.85;6.40;;;21.10;57.90;;;;;;5069915;28;20116;-76
2022/12/19 00:41:56;;;;;;;12.40;6.65;;;21.20;57.90;;;;;;5022091;28;20068;-76
2022/12/19 00:44:22;;;;;;;9.32;6.00;;;21.00;58.00;;;;;;5070172;28;20051;-76
2022/12/19 00:46:48;;;;;;;12.85;6.82;;;21.00;58.10;;;;;;5067039;28;20028;-75
2022/12/19 00:49:14;;;;;;;11.35;7.35;;;21.00;58.10;;;;;;5054380;28;20516;-77
2022/12/19 00:51:40;;;;;;;11.63;6.13;;;21.00;58.00;;;;;;5053306;28;20025;-77
2022/12/19 00:54:09;;;;;;;11.70;6.13;;;20.80;58.30;;;;;;5073773;28;20028;-73
2022/12/19 00:56:35;;;;;;;10.65;6.82;;;20.90;59.10;;;;;;5071169;28;20040;-75
2022/12/19 00:59:01;;;;;;;12.27;6.57;;;20.90;58.80;;;;;;5053670;28;20032;-73
2022/12/19 01:01:31;;;;;;;12.13;6.65;;;20.80;58.10;;;;;;5071446;28;20032;-73
2022/12/19 01:03:59;;;;;;;12.95;7.03;;;20.80;58.80;;;;;;5073667;28;20036;-77
2022/12/19 01:06:25;;;;;;;10.82;7.13;;;20.80;58.40;;;;;;5072926;28;20120;-74
2022/12/19 01:08:52;;;;;;;9.77;6.72;;;20.70;58.40;;;;;;5055681;28;20365;-76
2022/12/19 01:12:44;;;;;;;12.38;8.13;;;20.80;58.00;;;;;;5031065;28;20046;-76
2022/12/19 01:14:07;;;;;;;12.48;6.80;;;20.80;57.80;;;;;;5050397;28;20488;-75
2022/12/19 01:16:33;;;;;;;11.43;6.93;;;20.70;58.00;;;;;;5052111;28;20048;-75
2022/12/19 01:18:59;;;;;;;12.70;8.65;;;20.70;58.70;;;;;;5052813;28;20101;-76
2022/12/19 01:21:25;;;;;;;12.50;7.20;;;20.80;58.10;;;;;;5063768;28;20065;-77
2022/12/19 01:23:51;;;;;;;10.82;7.47;;;20.70;58.50;;;;;;5016894;28;20362;-71
2022/12/19 01:26:17;;;;;;;12.70;7.22;;;20.70;58.70;;;;;;5068273;28;20037;-75
2022/12/19 01:28:43;;;;;;;10.77;6.50;;;20.70;58.90;;;;;;5052309;28;20032;-76
2022/12/19 01:31:09;;;;;;;13.20;8.07;;;20.70;59.00;;;;;;5066418;28;20048;-76
2022/12/19 01:33:35;;;;;;;13.43;6.45;;;20.60;58.70;;;;;;5069690;28;20086;-75
2022/12/19 01:36:06;;;;;;;12.00;6.03;;;20.70;58.90;;;;;;5056539;28;20033;-74
2022/12/19 01:38:34;;;;;;;10.40;6.72;;;20.70;59.20;;;;;;5033939;28;20505;-75
2022/12/19 01:41:01;;;;;;;9.85;6.75;;;20.70;59.70;;;;;;5035502;28;20040;-76
2022/12/19 01:43:30;;;;;;;12.05;6.95;;;20.70;60.00;;;;;;5092365;28;20051;-77
2022/12/19 01:46:11;;;;;;;11.63;6.78;;;20.80;60.40;;;;;;5091069;28;20031;-78
2022/12/19 01:48:41;;;;;;;11.15;6.45;;;20.80;59.90;;;;;;5092212;28;20028;-79
2022/12/19 01:51:17;;;;;;;13.32;6.30;;;20.90;60.30;;;;;;5062318;28;20474;-76
2022/12/19 01:53:50;;;;;;;10.98;6.10;;;21.00;60.00;;;;;;5060712;28;20040;-78
2022/12/19 01:56:19;;;;;;;13.00;6.57;;;20.90;60.60;;;;;;5033104;28;20083;-73
2022/12/19 01:58:47;;;;;;;11.60;6.32;;;20.80;61.20;;;;;;5032455;28;20123;-78
2022/12/19 02:01:14;;;;;;;11.73;6.85;;;20.90;61.00;;;;;;5062058;28;20036;-77
2022/12/19 02:03:41;;;;;;;8.90;6.00;;;20.90;61.40;;;;;;5049980;28;20071;-77
2022/12/19 02:06:10;;;;;;;11.95;5.40;;;20.70;61.50;;;;;;5035454;28;20029;-77
2022/12/19 02:08:36;;;;;;;12.02;6.32;;;20.80;62.10;;;;;;5032528;28;20037;-78
2022/12/19 02:11:03;;;;;;;11.50;6.32;;;20.80;61.60;;;;;;5049804;28;20036;-78
2022/12/19 02:13:29;;;;;;;10.43;6.88;;;20.80;61.00;;;;;;5069609;28;20190;-76
2022/12/19 02:16:24;;;;;;;13.57;7.10;;;20.70;61.40;;;;;;5052059;28;20041;-76
2022/12/19 02:18:58;;;;;;;14.40;7.60;;;20.70;61.80;;;;;;5052441;28;20093;-77
2022/12/19 02:21:35;;;;;;;10.80;7.03;;;20.70;62.40;;;;;;5018056;28;20613;-77
2022/12/19 02:24:50;;;;;;;10.82;6.90;;;20.60;61.60;;;;;;5027995;28;20124;-75
2022/12/19 02:27:23;;;;;;;14.73;8.15;;;20.50;62.10;;;;;;5011506;28;20775;-76
2022/12/19 02:30:09;;;;;;;12.10;7.55;;;20.40;62.70;;;;;;5066822;28;20094;-77
2022/12/19 02:32:52;;;;;;;13.23;7.38;;;20.50;63.10;;;;;;5032231;28;20502;-77
2022/12/19 02:35:47;;;;;;;13.38;7.20;;;20.50;63.00;;;;;;5049269;28;20143;-78
2022/12/19 02:38:29;;;;;;;12.52;7.25;;;20.50;62.80;;;;;;5027852;28;20163;-78
2022/12/19 02:41:08;;;;;;;11.10;7.60;;;20.60;62.90;;;;;;5010640;28;20287;-78
2022/12/19 02:43:40;;;;;;;13.02;7.05;;;20.40;63.00;;;;;;5027326;28;20123;-76
2022/12/19 02:46:08;;;;;;;10.57;6.50;;;20.40;63.30;;;;;;5010811;28;20459;-71
2022/12/19 02:48:36;;;;;;;12.73;7.30;;;20.50;63.90;;;;;;5010288;28;20603;-77
2022/12/19 02:51:04;;;;;;;13.55;7.75;;;20.40;63.70;;;;;;5010817;28;20037;-77
2022/12/19 02:53:32;;;;;;;13.18;6.78;;;20.50;63.70;;;;;;5011465;28;20248;-77
2022/12/19 02:56:20;;;;;;;9.82;6.65;;;20.50;63.90;;;;;;5046287;28;20611;-77
2022/12/19 02:59:11;;;;;;;14.55;7.70;;;20.40;63.60;;;;;;5050113;28;20049;-78
2022/12/19 03:02:03;;;;;;;9.30;6.57;;;20.40;63.90;;;;;;5038371;28;20033;-77
2022/12/19 03:04:53;;;;;;;12.38;8.65;;;20.30;63.80;;;;;;5047892;28;20049;-76
2022/12/19 03:07:19;;;;;;;14.38;8.20;;;20.50;63.90;;;;;;5050479;28;20042;-77
2022/12/19 03:09:58;;;;;;;14.60;7.28;;;20.50;63.70;;;;;;5075919;28;20040;-78
2022/12/19 03:12:35;;;;;;;12.05;7.45;;;20.60;64.20;;;;;;5089945;28;20040;-77
2022/12/19 03:15:02;;;;;;;12.32;7.05;;;20.40;63.60;;;;;;5073527;28;20044;-78
2022/12/19 03:17:35;;;;;;;15.55;7.45;;;20.40;63.70;;;;;;5035084;28;20123;-78
2022/12/19 03:20:14;;;;;;;17.27;7.50;;;20.30;64.10;;;;;;4999626;28;20034;-77
2022/12/19 03:22:40;;;;;;;13.55;7.70;;;20.40;63.80;;;;;;5055972;28;20312;-77
2022/12/19 03:25:07;;;;;;;11.40;7.47;;;20.30;64.10;;;;;;5058745;28;20475;-78
2022/12/19 03:27:34;;;;;;;14.57;7.80;;;20.20;64.20;;;;;;5053183;28;20032;-77
2022/12/19 03:30:04;;;;;;;16.92;8.80;;;20.20;64.20;;;;;;5065349;28;20028;-78
2022/12/19 03:32:32;;;;;;;15.07;7.38;;;20.10;64.50;;;;;;5051651;28;20115;-73
2022/12/19 03:35:04;;;;;;;14.32;7.30;;;20.20;64.60;;;;;;5068263;28;20029;-77
2022/12/19 03:37:35;;;;;;;15.07;7.35;;;20.20;65.00;;;;;;5068676;28;20136;-77
2022/12/19 03:40:13;;;;;;;14.40;8.15;;;20.10;64.80;;;;;;5069589;28;20036;-77
2022/12/19 03:45:55;;;;;;;11.48;7.57;;;20.20;65.00;;;;;;5068524;28;20497;-76
2022/12/19 03:48:21;;;;;;;12.95;7.38;;;20.20;64.90;;;;;;4982793;28;20097;-73
2022/12/19 03:51:07;;;;;;;13.57;8.30;;;20.10;65.10;;;;;;4969478;28;20047;-77
2022/12/19 03:53:43;;;;;;;12.30;7.25;;;20.10;65.40;;;;;;4984297;28;20054;-78
2022/12/19 03:56:40;;;;;;;17.30;8.02;;;20.00;65.30;;;;;;4971150;28;20081;-79
2022/12/19 03:59:12;;;;;;;14.38;7.82;;;20.00;65.00;;;;;;4979508;28;20047;-77
2022/12/19 04:01:40;;;;;;;15.07;8.20;;;20.00;65.70;;;;;;4961486;28;20042;-77
2022/12/19 04:04:07;;;;;;;13.35;8.00;;;20.00;65.40;;;;;;4969144;28;20526;-76
2022/12/19 04:06:39;;;;;;;12.23;7.75;;;20.10;65.80;;;;;;4953005;28;20511;-73
2022/12/19 04:09:06;;;;;;;11.38;7.45;;;20.00;65.70;;;;;;4972134;28;20034;-77
2022/12/19 04:11:40;;;;;;;14.05;7.50;;;20.00;65.50;;;;;;4969364;28;20145;-77
2022/12/19 04:14:13;;;;;;;14.40;7.47;;;20.10;66.00;;;;;;4973091;28;20054;-78
2022/12/19 04:16:50;;;;;;;14.65;8.60;;;20.00;65.70;;;;;;4981471;28;20034;-77
2022/12/19 04:19:43;;;;;;;15.60;8.32;;;20.10;65.70;;;;;;4970185;28;20112;-77
2022/12/19 04:22:28;;;;;;;11.90;7.75;;;20.00;65.60;;;;;;4988096;28;20053;-74
2022/12/19 04:24:56;;;;;;;14.20;7.82;;;20.10;65.90;;;;;;5000845;28;20097;-74
2022/12/19 04:27:22;;;;;;;15.77;7.78;;;20.10;65.70;;;;;;5074924;28;20037;-79
2022/12/19 04:29:54;;;;;;;17.55;8.75;;;20.10;65.40;;;;;;5037423;28;20041;-77
2022/12/19 04:32:23;;;;;;;15.95;7.50;;;20.10;65.50;;;;;;5053810;28;20121;-77
2022/12/19 04:34:49;;;;;;;12.32;7.78;;;20.00;66.30;;;;;;5074234;28;20105;-78
2022/12/19 04:37:15;;;;;;;13.52;7.60;;;20.10;66.70;;;;;;5057646;28;20029;-78
2022/12/19 04:39:41;;;;;;;16.38;8.30;;;20.10;66.50;;;;;;5061295;28;20077;-77
2022/12/19 04:42:07;;;;;;;13.18;7.32;;;20.20;65.90;;;;;;5072823;28;20457;-72
2022/12/19 04:44:33;;;;;;;16.27;8.02;;;20.10;65.60;;;;;;5072814;28;20036;-74
2022/12/19 04:46:59;;;;;;;13.90;7.45;;;20.20;65.70;;;;;;5060486;28;20170;-78
2022/12/19 04:49:25;;;;;;;12.73;8.23;;;20.20;65.60;;;;;;5073080;28;20029;-78
2022/12/19 04:51:51;;;;;;;14.40;7.97;;;20.00;65.30;;;;;;5072208;28;20119;-75
2022/12/19 04:54:17;;;;;;;14.60;8.43;;;20.10;65.10;;;;;;5073562;28;20511;-77
2022/12/19 04:56:43;;;;;;;14.13;8.57;;;19.90;65.50;;;;;;5072174;28;20431;-78
2022/12/19 04:59:09;;;;;;;13.35;7.80;;;20.00;65.60;;;;;;5055166;28;20115;-75
2022/12/19 05:01:35;;;;;;;16.05;8.65;;;20.00;65.90;;;;;;5040406;28;20041;-75
2022/12/19 05:04:01;;;;;;;15.20;8.05;;;20.10;65.80;;;;;;5073041;28;20465;-74
2022/12/19 05:06:27;;;;;;;17.38;8.43;;;19.90;65.50;;;;;;5054362;28;20040;-76
2022/12/19 05:08:54;;;;;;;16.02;8.52;;;20.00;65.70;;;;;;5066027;28;20039;-76
2022/12/19 05:11:20;;;;;;;16.33;8.95;;;19.90;65.90;;;;;;5055693;28;20060;-78
2022/12/19 05:13:48;;;;;;;13.85;8.23;;;19.80;66.20;;;;;;5066705;28;20498;-78
2022/12/19 05:16:14;;;;;;;11.80;7.35;;;19.80;66.00;;;;;;5092715;28;20040;-72
2022/12/19 05:18:41;;;;;;;14.50;8.88;;;19.70;66.40;;;;;;5092202;28;20507;-76
2022/12/19 05:21:07;;;;;;;13.98;8.10;;;19.70;66.30;;;;;;5093101;28;20067;-78
2022/12/19 05:23:34;;;;;;;14.05;8.20;;;19.70;67.00;;;;;;5092683;28;20024;-77
2022/12/19 05:26:01;;;;;;;20.80;8.43;;;19.80;67.10;;;;;;5082135;28;20105;-77
2022/12/19 05:28:27;;;;;;;15.52;8.07;;;19.70;66.90;;;;;;5073285;28;20390;-79
2022/12/19 05:31:08;;;;;;;14.85;9.18;;;19.70;67.40;;;;;;5090963;28;20032;-74
2022/12/19 05:33:35;;;;;;;19.23;12.02;;;19.70;67.10;;;;;;5054472;28;20063;-72
2022/12/19 05:36:01;;;;;;;14.75;8.57;;;19.80;66.60;;;;;;5072427;28;20121;-77
2022/12/19 05:38:28;;;;;;;19.95;9.55;;;19.80;66.70;;;;;;5083815;28;20107;-75
2022/12/19 05:40:54;;;;;;;13.55;9.15;;;19.80;66.60;;;;;;5092534;28;20116;-78
2022/12/19 05:43:20;;;;;;;17.75;9.38;;;19.80;66.90;;;;;;5092977;28;20047;-78
2022/12/19 05:45:46;;;;;;;18.67;9.77;;;19.80;66.80;;;;;;5089940;28;20607;-75
2022/12/19 05:48:12;;;;;;;17.75;9.48;;;19.90;66.80;;;;;;5039996;28;20043;-78
2022/12/19 05:50:38;;;;;;;20.27;9.60;;;19.80;66.50;;;;;;5040231;28;20040;-78
2022/12/19 05:53:10;;;;;;;16.73;9.97;;;19.80;66.80;;;;;;5088521;28;20028;-72
2022/12/19 05:55:36;;;;;;;16.45;9.88;;;19.80;66.50;;;;;;5092604;28;20070;-75
2022/12/19 05:58:02;;;;;;;18.17;10.02;;;19.70;66.60;;;;;;5093125;28;20044;-77
2022/12/19 06:00:28;;;;;;;18.38;9.15;;;19.70;66.50;;;;;;5091129;28;20380;-78
2022/12/19 06:02:54;;;;;;;20.08;9.45;;;19.70;66.60;;;;;;5092198;28;20040;-78
2022/12/19 06:05:20;;;;;;;15.40;9.38;;;19.70;66.70;;;;;;5040449;28;20036;-78
2022/12/19 06:07:46;;;;;;;18.13;10.43;;;19.70;67.20;;;;;;5092199;28;20028;-77
2022/12/19 06:10:12;;;;;;;19.95;10.88;;;19.60;66.80;;;;;;5091879;28;20088;-75
2022/12/19 06:12:38;;;;;;;13.73;9.02;;;19.60;66.60;;;;;;5089976;28;20044;-77
2022/12/19 06:15:05;;;;;;;16.15;9.02;;;19.50;66.80;;;;;;5079258;28;20064;-77
2022/12/19 06:17:31;;;;;;;16.65;9.75;;;19.50;67.40;;;;;;5076140;28;20031;-77
2022/12/19 06:19:57;;;;;;;13.18;8.10;;;19.50;67.70;;;;;;5089655;28;20100;-77
2022/12/19 06:22:24;;;;;;;20.20;8.77;;;19.60;67.70;;;;;;5092939;28;20048;-77
2022/12/19 06:24:50;;;;;;;13.85;8.82;;;19.70;67.70;;;;;;5085399;28;20035;-77
2022/12/19 06:27:16;;;;;;;15.80;8.73;;;19.50;67.20;;;;;;5089465;28;20158;-78
2022/12/19 06:29:42;;;;;;;20.30;11.13;;;19.50;67.40;;;;;;5072466;28;20044;-76
2022/12/19 06:32:08;;;;;;;20.00;11.15;;;19.60;67.40;;;;;;5090753;28;20097;-78
2022/12/19 06:34:34;;;;;;;17.20;10.75;;;19.50;67.40;;;;;;5085130;28;20074;-74
2022/12/19 06:37:00;;;;;;;23.00;12.32;;;19.50;67.60;;;;;;5074745;28;20042;-73
2022/12/19 06:39:26;;;;;;;16.50;10.63;;;19.50;67.00;;;;;;5078549;28;20024;-75
2022/12/19 06:44:37;;;;;;;16.27;9.85;;;19.80;59.70;;;;;;5091944;28;20085;-75
2022/12/19 06:47:03;;;;;;;13.43;8.95;;;20.00;55.30;;;;;;5070403;28;20461;-74
2022/12/19 06:49:29;;;;;;;16.10;9.50;;;20.10;55.60;;;;;;5072048;28;20036;-74
2022/12/19 06:51:55;;;;;;;23.95;13.85;;;20.20;53.20;;;;;;5071821;28;20070;-75
2022/12/19 06:54:21;;;;;;;29.67;18.73;;;20.40;52.20;;;;;;5086365;28;20107;-73
2022/12/19 06:56:47;;;;;;;36.58;21.65;;;20.50;53.50;;;;;;5092078;28;20071;-73
2022/12/19 06:59:15;;;;;;;30.13;19.48;;;20.60;53.40;;;;;;5090204;28;20124;-75
2022/12/19 07:01:59;;;;;;;23.02;12.52;;;20.60;51.10;;;;;;5081929;28;20064;-73
2022/12/19 07:04:34;;;;;;;20.92;12.48;;;20.70;50.30;;;;;;5091076;28;20093;-74
2022/12/19 07:07:08;;;;;;;22.58;10.95;;;20.70;48.20;;;;;;5112912;27;20553;-73
2022/12/19 07:09:35;;;;;;;18.52;12.50;;;20.70;50.40;;;;;;5087741;28;20032;-69
2022/12/19 07:12:01;;;;;;;10.13;6.93;;;21.00;65.90;;;;;;5089962;28;20047;-73
2022/12/19 07:14:27;;;;;;;17.52;9.30;;;21.10;63.30;;;;;;5069652;28;20389;-73
2022/12/19 07:16:56;;;;;;;20.02;8.93;;;21.30;61.70;;;;;;5087983;28;20021;-74
2022/12/19 07:19:23;;;;;;;23.33;10.80;;;21.40;58.40;;;;;;5068796;28;20199;-72
2022/12/19 07:21:49;;;;;;;17.30;10.98;;;21.50;57.30;;;;;;5108241;28;20032;-72
2022/12/19 07:24:15;;;;;;;20.63;11.65;;;21.50;56.10;;;;;;5090699;28;20438;-73
2022/12/19 07:26:43;;;;;;;14.05;8.30;;;21.50;54.70;;;;;;5087378;28;20097;-71
2022/12/19 07:29:10;;;;;;;14.43;7.95;;;21.50;54.30;;;;;;5107844;28;20074;-73
2022/12/19 07:31:37;;;;;;;11.90;6.68;;;21.60;54.00;;;;;;5075974;28;20097;-72
2022/12/19 07:34:03;;;;;;;22.60;11.23;;;21.70;54.10;;;;;;5094149;28;20036;-73
2022/12/19 07:36:29;;;;;;;21.58;11.73;;;21.60;53.40;;;;;;5098894;28;20024;-74
2022/12/19 07:38:55;;;;;;;21.83;10.95;;;21.50;54.50;;;;;;5098691;28;20039;-75
2022/12/19 07:41:21;;;;;;;19.23;10.60;;;21.30;55.60;;;;;;5060650;28;20052;-72
2022/12/19 07:43:47;;;;;;;22.45;11.10;;;21.10;56.70;;;;;;5090702;28;20037;-73
2022/12/19 07:46:13;;;;;;;19.67;10.43;;;21.00;57.50;;;;;;5125411;28;20062;-71
2022/12/19 07:48:39;;;;;;;17.85;10.05;;;21.00;58.00;;;;;;5074339;28;20457;-76
2022/12/19 07:51:05;;;;;;;20.85;11.13;;;20.90;58.10;;;;;;5118980;28;20031;-75
2022/12/19 07:53:31;;;;;;;18.77;10.45;;;20.90;59.30;;;;;;5084275;28;20036;-74
2022/12/19 07:55:57;;;;;;;18.17;10.90;;;20.70;60.60;;;;;;5084528;28;20038;-72
2022/12/19 07:58:23;;;;;;;15.70;9.80;;;20.80;60.40;;;;;;5066694;28;20040;-72
2022/12/19 08:00:56;;;;;;;20.17;11.40;;;20.90;60.70;;;;;;5085091;28;20836;-73
2022/12/19 08:03:23;;;;;;;16.65;9.88;;;20.80;60.80;;;;;;5084104;28;20036;-73
2022/12/19 08:05:49;;;;;;;20.10;11.40;;;20.70;61.80;;;;;;5074883;28;20061;-74
2022/12/19 08:08:15;;;;;;;16.88;9.98;;;20.70;62.40;;;;;;5068410;28;20103;-73
2022/12/19 08:10:41;;;;;;;19.58;10.48;;;20.80;62.30;;;;;;5084359;28;20032;-73
2022/12/19 08:13:07;;;;;;;18.98;10.93;;;20.80;62.70;;;;;;5084429;28;20454;-74
2022/12/19 08:15:34;;;;;;;18.98;10.23;;;20.60;62.50;;;;;;5083972;28;20044;-70
2022/12/19 08:18:01;;;;;;;18.40;10.90;;;20.40;62.90;;;;;;5069976;28;20051;-72
2022/12/19 08:20:27;;;;;;;23.17;12.38;;;20.50;63.20;;;;;;5050803;28;20029;-72
2022/12/19 08:22:53;;;;;;;21.75;9.90;;;20.50;63.50;;;;;;5055290;28;20033;-71
2022/12/19 08:25:19;;;;;;;23.23;11.07;;;20.40;64.00;;;;;;5072148;28;20029;-73
2022/12/19 08:27:45;;;;;;;21.27;11.07;;;20.30;63.60;;;;;;5060444;28;20127;-75
2022/12/19 08:30:12;;;;;;;16.05;10.70;;;20.40;63.50;;;;;;5059461;28;20032;-75
2022/12/19 08:32:39;;;;;;;24.50;11.40;;;20.30;63.70;;;;;;5055482;28;20036;-71
2022/12/19 08:35:06;;;;;;;17.15;11.05;;;20.10;63.90;;;;;;5034859;28;20037;-73
2022/12/19 08:37:32;;;;;;;22.73;12.02;;;20.20;63.80;;;;;;5045011;28;20033;-74
2022/12/19 08:39:58;;;;;;;20.65;10.55;;;20.10;64.10;;;;;;5056021;28;20135;-75
2022/12/19 08:42:24;;;;;;;18.42;11.18;;;20.20;64.20;;;;;;5060748;28;20069;-72
2022/12/19 08:44:50;;;;;;;23.67;12.77;;;20.10;64.00;;;;;;5069571;28;20036;-72
2022/12/19 08:47:16;;;;;;;24.60;11.90;;;20.20;64.30;;;;;;5073127;28;20024;-74
2022/12/19 08:49:42;;;;;;;22.40;12.15;;;20.10;64.20;;;;;;5069772;28;20033;-71
2022/12/19 08:52:08;;;;;;;22.40;12.27;;;20.10;63.80;;;;;;5053944;28;20035;-75
2022/12/19 08:54:34;;;;;;;20.73;11.68;;;20.10;64.30;;;;;;5054693;28;20033;-74
2022/12/19 08:57:00;;;;;;;21.20;11.85;;;20.10;64.50;;;;;;5052146;28;20094;-75
2022/12/19 08:59:26;;;;;;;24.10;12.32;;;20.00;64.20;;;;;;5066761;28;20099;-75
2022/12/19 09:01:52;;;;;;;23.88;13.30;;;20.00;64.30;;;;;;5071279;28;20080;-73
2022/12/19 09:04:18;;;;;;;19.55;11.70;;;20.00;64.30;;;;;;5051931;28;20062;-76
2022/12/19 09:06:44;;;;;;;20.98;11.30;;;20.10;64.00;;;;;;5069775;28;20052;-75
2022/12/19 09:09:10;;;;;;;19.33;10.20;;;20.00;63.90;;;;;;5049982;28;20036;-74
2022/12/19 09:11:35;;;;;;;18.38;10.32;;;20.00;64.40;;;;;;5069407;28;20105;-76
2022/12/19 09:14:03;;;;;;;17.23;10.40;;;20.10;64.10;;;;;;5058584;28;20033;-73
2022/12/19 09:16:29;;;;;;;25.13;11.80;;;20.10;63.50;;;;;;5051982;28;20061;-74
2022/12/19 09:18:57;;;;;;;15.40;8.98;;;20.10;63.20;;;;;;5035049;28;20029;-69
2022/12/19 09:21:25;;;;;;;38.45;13.25;;;20.20;57.70;;;;;;5049765;28;20028;-73
2022/12/19 09:23:53;;;;;;;16.02;9.15;;;20.40;60.40;;;;;;5052481;28;20068;-75
2022/12/19 09:26:21;;;;;;;14.35;9.43;;;20.70;49.00;;;;;;5051756;28;20045;-73
2022/12/19 09:28:48;;;;;;;19.25;8.85;;;20.70;46.30;;;;;;5066511;28;20059;-73
2022/12/19 09:31:23;;;;;;;15.15;9.13;;;20.80;45.80;;;;;;5044755;28;20035;-75
2022/12/19 09:33:49;;;;;;;15.63;9.02;;;20.80;45.30;;;;;;5040782;28;20064;-76
2022/12/19 09:36:18;;;;;;;12.35;7.53;;;20.90;45.10;;;;;;5050332;28;20771;-75
2022/12/19 09:38:44;;;;;;;16.17;9.70;;;20.80;42.20;;;;;;5056815;28;20056;-78
2022/12/19 09:41:40;;;;;;;20.40;11.25;;;21.10;57.50;;;;;;5067276;28;20119;-79
2022/12/19 09:44:30;;;;;;;19.30;9.95;;;21.10;57.90;;;;;;5057793;28;20064;-78
2022/12/19 09:47:03;;;;;;;16.88;9.65;;;21.00;58.20;;;;;;5008129;28;20077;-78
2022/12/19 09:49:37;;;;;;;20.30;10.23;;;21.00;58.10;;;;;;5055160;28;20054;-80
2022/12/19 09:52:10;;;;;;;21.85;11.27;;;21.10;58.60;;;;;;5071562;28;20036;-79
2022/12/19 09:54:45;;;;;;;20.83;11.98;;;21.00;59.00;;;;;;5040583;28;20033;-78
2022/12/19 09:57:16;;;;;;;21.10;11.95;;;20.80;59.30;;;;;;5027468;28;20040;-79
2022/12/19 09:59:52;;;;;;;23.20;12.23;;;20.80;59.40;;;;;;5053421;28;20056;-74
2022/12/19 10:02:36;;;;;;;19.35;10.50;;;20.70;59.60;;;;;;5007834;28;20064;-80
2022/12/19 10:05:24;;;;;;;18.27;10.80;;;20.80;59.80;;;;;;5040966;28;20152;-71
2022/12/19 10:07:51;;;;;;;24.13;11.30;;;20.70;59.70;;;;;;5011795;28;20045;-79
2022/12/19 10:10:25;;;;;;;19.35;12.23;;;20.70;59.70;;;;;;5028833;28;20132;-79
2022/12/19 10:13:16;;;;;;;22.08;11.13;;;20.70;59.90;;;;;;5012086;28;20046;-78
2022/12/19 10:15:45;;;;;;;19.38;10.85;;;20.70;59.80;;;;;;5028732;28;20037;-75
2022/12/19 10:18:31;;;;;;;23.95;11.45;;;20.80;60.60;;;;;;5029049;28;20406;-77
2022/12/19 10:21:07;;;;;;;22.35;11.63;;;20.60;60.40;;;;;;5028068;28;20034;-75
2022/12/19 10:24:00;;;;;;;18.55;11.60;;;20.80;60.90;;;;;;5028633;28;20714;-76
2022/12/19 10:26:37;;;;;;;26.05;12.98;;;20.60;60.50;;;;;;5028438;28;20518;-73
2022/12/19 10:29:40;;;;;;;19.58;11.70;;;20.40;61.70;;;;;;5028151;28;20116;-73
2022/12/19 10:32:26;;;;;;;22.08;12.27;;;20.40;64.20;;;;;;5027718;28;20040;-73
2022/12/19 10:34:53;;;;;;;21.50;10.82;;;20.40;66.10;;;;;;5027794;28;20041;-73
2022/12/19 10:37:29;;;;;;;20.83;11.45;;;20.40;67.30;;;;;;5050349;28;20044;-71
2022/12/19 10:40:05;;;;;;;18.77;11.00;;;20.30;67.20;;;;;;5050599;28;20500;-73
2022/12/19 10:42:52;;;;;;;25.63;11.55;;;20.30;68.40;;;;;;5031794;28;20029;-74
2022/12/19 10:45:20;;;;;;;20.17;11.05;;;20.30;68.40;;;;;;5066821;28;20042;-74
2022/12/19 10:47:50;;;;;;;21.02;11.55;;;20.40;68.90;;;;;;5032594;28;20401;-73
2022/12/19 10:50:21;;;;;;;20.45;11.55;;;20.30;69.70;;;;;;5061469;28;20128;-73
2022/12/19 10:52:55;;;;;;;17.65;12.57;;;20.20;70.00;;;;;;5067919;28;20021;-70
2022/12/19 10:55:43;;;;;;;20.00;12.35;;;20.30;66.00;;;;;;5058306;28;20033;-73
2022/12/19 10:58:34;;;;;;;17.20;10.52;;;20.80;69.80;;;;;;5033404;28;20387;-73
2022/12/19 11:01:28;;;;;;;21.30;12.80;;;21.20;68.90;;;;;;5051163;28;20033;-73
2022/12/19 11:04:15;;;;;;;19.27;12.52;;;21.50;58.20;;;;;;5051657;28;20075;-72
2022/12/19 11:06:46;;;;;;;17.35;12.00;;;21.60;57.00;;;;;;5044970;28;20707;-72
2022/12/19 11:09:28;;;;;;;24.50;12.48;;;21.70;54.50;;;;;;5078186;28;20035;-74
2022/12/19 11:12:05;;;;;;;17.17;10.23;;;21.60;52.60;;;;;;5070719;28;20057;-72
2022/12/19 11:14:33;;;;;;;18.20;10.40;;;21.70;51.40;;;;;;5080578;28;20040;-74
2022/12/19 11:16:59;;;;;;;19.88;12.30;;;21.90;47.80;;;;;;5076003;28;20203;-71
2022/12/19 11:19:27;;;;;;;24.55;13.40;;;21.80;47.40;;;;;;5076861;28;20101;-71
2022/12/19 11:21:56;;;;;;;17.90;12.27;;;22.00;50.70;;;;;;5075408;28;20032;-70
2022/12/19 11:24:27;;;;;;;21.25;13.13;;;22.10;47.20;;;;;;5073739;28;20025;-70
2022/12/19 11:26:53;;;;;;;17.50;11.00;;;22.20;54.70;;;;;;5083112;28;20079;-71
2022/12/19 11:29:42;;;;;;;17.13;5.57;;;22.30;47.80;;;;;;5100612;28;20040;-77
2022/12/19 11:32:23;;;;;;;21.40;11.23;;;22.20;54.20;;;;;;5078161;28;20074;-70
2022/12/19 11:34:50;;;;;;;31.63;13.82;;;22.40;45.10;;;;;;5085401;28;20370;-69
2022/12/19 11:37:22;;;;;;;24.38;12.80;;;22.40;58.10;;;;;;5067977;28;20065;-73
2022/12/19 11:39:53;;;;;;;26.03;16.07;;;22.70;60.90;;;;;;5078625;28;20561;-73
2022/12/19 11:42:43;;;;;;;23.88;13.13;;;23.00;61.00;;;;;;5083548;28;20036;-71
2022/12/19 11:45:47;;;;;;;22.13;14.13;;;23.00;61.20;;;;;;5086799;28;20169;-72
2022/12/19 11:48:22;;;;;;;21.92;13.57;;;23.20;61.50;;;;;;5074673;28;20028;-72
2022/12/19 11:51:13;;;;;;;21.98;12.77;;;23.50;75.40;;;;;;5085065;28;20024;-70
2022/12/19 11:53:53;;;;;;;22.13;12.18;;;23.20;64.20;;;;;;5092032;28;20040;-70
2022/12/19 11:56:22;;;;;;;23.27;12.85;;;22.80;63.30;;;;;;5085896;28;20048;-71
2022/12/19 11:58:54;;;;;;;20.95;12.70;;;22.70;63.30;;;;;;5092591;28;20043;-70
2022/12/19 12:01:38;;;;;;;21.02;12.98;;;22.50;63.00;;;;;;5091203;28;20116;-70
2022/12/19 12:04:07;;;;;;;24.30;13.10;;;22.40;63.80;;;;;;5089598;28;20020;-71
2022/12/19 12:06:44;;;;;;;25.27;13.32;;;22.20;64.00;;;;;;5058166;28;20049;-70
2022/12/19 12:09:20;;;;;;;24.90;13.07;;;22.10;64.20;;;;;;5052815;28;20056;-70
2022/12/19 12:12:15;;;;;;;24.10;12.35;;;22.10;64.20;;;;;;5067446;28;20441;-71
2022/12/19 12:15:22;;;;;;;29.15;14.73;;;22.00;64.40;;;;;;5054634;28;20116;-68
2022/12/19 12:18:17;;;;;;;22.27;13.65;;;21.90;64.90;;;;;;4969626;28;20049;-69
2022/12/19 12:21:01;;;;;;;28.88;14.20;;;21.90;64.80;;;;;;4952734;28;20043;-69
2022/12/19 12:23:30;;;;;;;21.05;11.75;;;21.80;64.50;;;;;;4952854;28;20062;-73
2022/12/19 12:26:33;;;;;;;21.60;12.18;;;21.70;64.30;;;;;;4953737;28;20062;-69
2022/12/19 12:29:03;;;;;;;21.77;12.40;;;21.70;63.90;;;;;;4913206;29;20048;-69
2022/12/19 12:31:40;;;;;;;21.42;12.15;;;21.70;64.20;;;;;;4910317;29;20036;-69
2022/12/19 12:34:37;;;;;;;23.20;12.90;;;21.60;64.20;;;;;;4911449;29;20457;-69
2022/12/19 12:37:17;;;;;;;21.50;11.40;;;21.50;63.60;;;;;;4895525;29;20040;-69
2022/12/19 12:40:04;;;;;;;14.20;9.35;;;21.60;63.90;;;;;;4908651;29;20064;-69
2022/12/19 12:42:38;;;;;;;19.88;11.43;;;21.50;63.70;;;;;;4903771;29;20192;-70
2022/12/19 12:45:25;;;;;;;20.67;12.38;;;21.50;63.50;;;;;;4896108;29;20043;-71
2022/12/19 12:47:52;;;;;;;18.40;11.15;;;21.40;63.60;;;;;;4910072;29;20032;-71
2022/12/19 12:50:22;;;;;;;22.95;11.40;;;21.30;63.50;;;;;;4914517;29;20083;-72
2022/12/19 12:52:54;;;;;;;22.58;12.18;;;21.20;63.60;;;;;;4912096;29;20056;-70
2022/12/19 12:55:42;;;;;;;20.33;11.85;;;21.20;64.10;;;;;;4949380;28;20043;-71
2022/12/19 12:58:41;;;;;;;25.25;13.30;;;21.20;64.80;;;;;;4961735;28;20159;-72
2022/12/19 13:01:14;;;;;;;18.13;11.57;;;21.10;65.20;;;;;;4976452;28;20452;-71